Time;durP1;ratioP1;P1;durP2;ratioP2;P2;SDS_P1;SDS_P2;PMS_P1;PMS_P2;Temp;Humidity;BMP_temperature;BMP_pressure;BME280_temperature;BME280_humidity;BME280_pressure;Samples;Min_cycle;Max_cycle;Signal;HPM_P1;HPM_P2
2021/12/24 00:01:54;;;;;;;9.63;5.47;;;0.40;92.70;;;;;;5127402;27;20042;-74
2021/12/24 00:04:21;;;;;;;13.32;5.40;;;0.30;93.10;;;;;;5132118;27;20049;-74
2021/12/24 00:06:48;;;;;;;9.52;5.45;;;0.50;92.80;;;;;;5131551;27;20034;-74
2021/12/24 00:09:21;;;;;;;12.70;5.30;;;0.50;93.00;;;;;;5134671;27;20039;-74
2021/12/24 00:11:51;;;;;;;10.93;5.18;;;0.30;92.90;;;;;;5134688;27;21660;-74
2021/12/24 00:14:17;;;;;;;11.07;5.68;;;0.40;92.90;;;;;;5134612;27;20035;-74
2021/12/24 00:16:48;;;;;;;11.85;6.22;;;0.40;92.90;;;;;;5134684;27;20027;-74
2021/12/24 00:38:01;;;;;;;19.63;6.10;;;0.60;92.50;;;;;;5141165;27;20039;-74
2021/12/24 00:40:27;;;;;;;12.73;6.00;;;0.60;92.50;;;;;;5132514;27;20127;-74
2021/12/24 00:42:55;;;;;;;15.43;6.97;;;0.50;93.00;;;;;;5133934;27;20015;-74
2021/12/24 00:45:27;;;;;;;10.65;5.50;;;0.50;93.10;;;;;;5133115;27;20031;-74
2021/12/24 00:47:54;;;;;;;16.65;6.38;;;0.40;93.20;;;;;;5129320;27;20019;-74
2021/12/24 00:50:25;;;;;;;19.10;6.88;;;0.40;92.70;;;;;;5133504;27;20031;-74
2021/12/24 00:52:57;;;;;;;12.00;5.63;;;0.50;92.70;;;;;;5115343;27;20062;-74
2021/12/24 00:55:27;;;;;;;12.02;5.80;;;0.50;92.70;;;;;;5130051;27;20032;-74
2021/12/24 00:57:56;;;;;;;10.90;6.07;;;0.50;92.80;;;;;;5129810;27;20545;-74
2021/12/24 01:00:28;;;;;;;14.30;5.75;;;0.50;92.60;;;;;;5132708;27;20027;-74
2021/12/24 01:02:56;;;;;;;11.70;5.65;;;0.50;92.90;;;;;;5133790;27;20088;-74
2021/12/24 01:05:23;;;;;;;9.95;4.88;;;0.30;93.50;;;;;;5133045;27;20035;-74
2021/12/24 01:07:50;;;;;;;12.18;6.38;;;0.20;93.40;;;;;;5132655;27;20047;-74
2021/12/24 01:10:19;;;;;;;9.07;5.63;;;0.30;93.10;;;;;;5134703;27;20110;-74
2021/12/24 01:12:46;;;;;;;10.05;5.95;;;0.30;93.20;;;;;;5129284;27;20134;-74
2021/12/24 01:15:13;;;;;;;10.90;5.45;;;0.40;92.90;;;;;;5133106;27;20118;-74
2021/12/24 01:20:26;;;;;;;11.93;5.60;;;0.40;92.90;;;;;;5139835;27;20066;-74
2021/12/24 01:28:34;;;;;;;11.52;6.22;;;0.40;92.60;;;;;;5131788;27;20519;-74
2021/12/24 01:39:26;;;;;;;14.20;5.07;;;0.50;92.70;;;;;;5133239;27;20046;-74
2021/12/24 01:44:39;;;;;;;11.50;5.50;;;0.40;92.70;;;;;;5090386;28;20443;-74
2021/12/24 01:47:07;;;;;;;14.02;5.65;;;0.50;92.80;;;;;;5126643;27;20035;-74
2021/12/24 01:49:33;;;;;;;11.60;5.70;;;0.50;92.80;;;;;;5133114;27;20038;-74
2021/12/24 01:52:02;;;;;;;13.30;5.70;;;0.40;93.00;;;;;;5132336;27;20035;-74
2021/12/24 01:54:29;;;;;;;11.18;5.55;;;0.50;92.80;;;;;;5132806;27;20419;-74
2021/12/24 01:56:55;;;;;;;10.40;5.68;;;0.50;92.70;;;;;;5131300;27;20031;-74
2021/12/24 01:59:21;;;;;;;9.93;5.22;;;0.60;92.70;;;;;;5123826;27;20083;-74
2021/12/24 02:01:47;;;;;;;10.82;5.45;;;0.40;93.00;;;;;;5131729;27;20028;-74
2021/12/24 02:04:14;;;;;;;9.05;5.13;;;0.40;93.00;;;;;;5131421;27;20039;-74
2021/12/24 02:06:41;;;;;;;10.98;4.50;;;0.40;93.00;;;;;;5112839;27;20366;-74
2021/12/24 02:09:08;;;;;;;8.85;4.93;;;0.50;93.00;;;;;;5131366;27;20043;-74
2021/12/24 02:11:37;;;;;;;8.02;4.90;;;0.40;93.20;;;;;;5131893;27;20038;-74
2021/12/24 02:14:09;;;;;;;12.85;5.93;;;0.40;93.10;;;;;;5132158;27;20374;-74
2021/12/24 02:30:02;;;;;;;13.48;5.72;;;0.20;93.30;;;;;;5130974;27;20050;-74
2021/12/24 02:32:28;;;;;;;14.20;5.90;;;0.20;93.40;;;;;;5129364;27;20023;-74
2021/12/24 02:34:54;;;;;;;10.02;4.90;;;0.30;93.20;;;;;;5131396;27;20023;-74
2021/12/24 02:37:19;;;;;;;8.70;4.85;;;0.20;93.30;;;;;;5129573;27;20485;-74
2021/12/24 02:39:45;;;;;;;11.60;5.32;;;0.40;93.10;;;;;;5131347;27;20026;-74
2021/12/24 02:42:20;;;;;;;11.05;5.88;;;0.40;93.20;;;;;;5131066;27;20031;-74
2021/12/24 02:44:48;;;;;;;11.27;4.93;;;0.20;93.30;;;;;;5131269;27;20035;-74
2021/12/24 02:55:05;;;;;;;11.85;6.40;;;0.10;93.70;;;;;;5130133;27;20117;-74
2021/12/24 02:57:34;;;;;;;10.10;5.57;;;0.10;93.80;;;;;;5113307;27;20042;-74
2021/12/24 03:00:06;;;;;;;10.32;5.22;;;0.00;93.80;;;;;;5130518;27;20944;-74
2021/12/24 03:02:33;;;;;;;8.07;4.53;;;0.10;94.20;;;;;;5113210;27;20385;-74
2021/12/24 03:05:00;;;;;;;11.20;5.50;;;0.20;93.70;;;;;;5130643;27;20038;-74
2021/12/24 03:07:25;;;;;;;7.35;4.75;;;0.20;93.40;;;;;;5131095;27;20088;-74
2021/12/24 03:09:51;;;;;;;10.77;5.60;;;0.10;93.60;;;;;;5126627;27;20473;-74
2021/12/24 03:12:17;;;;;;;10.23;4.72;;;0.20;93.40;;;;;;5107951;27;20410;-74
2021/12/24 03:14:43;;;;;;;10.75;5.05;;;0.40;93.30;;;;;;5131143;27;20098;-75
2021/12/24 03:17:13;;;;;;;9.93;6.60;;;0.20;93.60;;;;;;5131309;27;20114;-74
2021/12/24 03:19:39;;;;;;;10.02;4.90;;;0.20;93.70;;;;;;5123970;27;20106;-74
2021/12/24 03:24:50;;;;;;;9.80;4.78;;;0.00;93.90;;;;;;5130763;27;20046;-74
2021/12/24 03:27:16;;;;;;;9.25;5.40;;;0.00;94.00;;;;;;5131081;28;20038;-74
2021/12/24 03:29:43;;;;;;;12.15;5.88;;;0.20;93.70;;;;;;5130009;28;20031;-74
2021/12/24 03:32:09;;;;;;;11.10;5.43;;;0.30;93.40;;;;;;5129412;28;20032;-74
2021/12/24 03:34:35;;;;;;;9.40;4.20;;;0.20;93.40;;;;;;5130413;28;20031;-74
2021/12/24 03:37:03;;;;;;;10.33;4.83;;;0.00;93.90;;;;;;5130236;28;20039;-74
2021/12/24 03:39:29;;;;;;;9.40;5.07;;;0.10;93.90;;;;;;5130704;28;20050;-74
2021/12/24 03:41:55;;;;;;;9.82;5.15;;;0.10;93.70;;;;;;5120767;28;20023;-74
2021/12/24 03:44:30;;;;;;;8.32;4.82;;;0.10;93.40;;;;;;5117438;28;20031;-74
2021/12/24 03:47:03;;;;;;;10.20;5.30;;;0.20;93.10;;;;;;5123843;28;20358;-74
2021/12/24 03:49:45;;;;;;;22.45;5.88;;;0.30;93.20;;;;;;5130158;28;20042;-74
2021/12/24 03:54:59;;;;;;;10.07;5.35;;;0.20;93.50;;;;;;5131088;28;20019;-74
2021/12/24 03:57:29;;;;;;;11.68;5.13;;;0.20;93.30;;;;;;5130310;28;20568;-74
2021/12/24 03:59:57;;;;;;;10.50;4.43;;;0.30;93.10;;;;;;5129933;28;20073;-74
2021/12/24 04:02:24;;;;;;;8.43;4.32;;;0.30;93.20;;;;;;5125455;28;20026;-73
2021/12/24 04:04:50;;;;;;;11.32;5.22;;;0.30;93.20;;;;;;5118085;28;20437;-73
2021/12/24 04:07:17;;;;;;;10.82;5.68;;;0.30;93.20;;;;;;5122254;28;20081;-73
2021/12/24 04:09:51;;;;;;;8.82;4.80;;;0.30;93.00;;;;;;5123069;28;20968;-73
2021/12/24 04:12:17;;;;;;;11.75;4.85;;;0.40;92.80;;;;;;5122435;28;20019;-73
2021/12/24 04:14:42;;;;;;;7.13;4.40;;;0.30;93.10;;;;;;5122615;28;20525;-73
2021/12/24 04:17:08;;;;;;;7.13;3.88;;;0.20;93.10;;;;;;5122734;28;20054;-73
2021/12/24 04:24:53;;;;;;;10.65;5.65;;;0.00;93.50;;;;;;5129360;27;20515;-73
2021/12/24 04:27:29;;;;;;;10.18;5.07;;;-0.20;93.50;;;;;;5128345;27;20027;-73
2021/12/24 04:30:08;;;;;;;9.52;4.82;;;-0.10;93.90;;;;;;5123594;27;20049;-73
2021/12/24 04:51:32;;;;;;;10.02;4.80;;;0.20;93.40;;;;;;5128751;27;20046;-73
2021/12/24 05:04:46;;;;;;;8.05;4.57;;;0.40;93.00;;;;;;5126327;27;20031;-73
2021/12/24 05:07:40;;;;;;;12.10;5.50;;;0.50;92.80;;;;;;5119928;27;20075;-73
2021/12/24 05:10:00;;;;;;;6.82;4.25;;;0.40;92.90;;;;;;5123983;27;20035;-73
2021/12/24 05:12:26;;;;;;;9.02;4.20;;;0.30;93.00;;;;;;5122266;27;20035;-73
2021/12/24 05:14:51;;;;;;;11.05;4.95;;;0.30;93.30;;;;;;5124885;27;20019;-73
2021/12/24 05:22:33;;;;;;;10.50;4.05;;;0.30;93.00;;;;;;5125320;27;20046;-73
2021/12/24 05:25:00;;;;;;;13.38;4.88;;;0.40;93.00;;;;;;5125693;27;20023;-73
2021/12/24 05:27:26;;;;;;;8.82;5.00;;;0.10;93.30;;;;;;5122299;27;20035;-73
2021/12/24 05:29:53;;;;;;;10.07;5.20;;;0.00;93.40;;;;;;5125066;27;20038;-73
2021/12/24 05:32:19;;;;;;;8.68;4.38;;;0.00;93.50;;;;;;5120079;27;20051;-73
2021/12/24 05:34:45;;;;;;;6.88;3.53;;;-0.10;93.80;;;;;;5118888;27;20070;-73
2021/12/24 05:37:11;;;;;;;10.20;4.10;;;0.00;93.70;;;;;;5122721;27;20059;-73
2021/12/24 05:39:37;;;;;;;9.65;4.75;;;0.40;92.90;;;;;;5124272;27;20024;-73
2021/12/24 05:42:04;;;;;;;8.57;4.55;;;0.50;92.60;;;;;;5122466;27;20035;-73
2021/12/24 05:44:32;;;;;;;8.65;4.20;;;0.30;93.00;;;;;;5121205;27;20028;-73
2021/12/24 05:46:58;;;;;;;9.90;4.88;;;0.30;93.10;;;;;;5123783;27;20027;-73
2021/12/24 05:49:23;;;;;;;10.50;4.18;;;0.40;92.80;;;;;;5125167;27;20599;-73
2021/12/24 05:51:49;;;;;;;10.63;4.70;;;0.50;92.70;;;;;;5124269;27;20034;-73
2021/12/24 05:54:15;;;;;;;8.57;4.00;;;0.40;92.70;;;;;;5125473;27;20163;-73
2021/12/24 05:56:42;;;;;;;8.15;3.58;;;0.50;92.80;;;;;;5123570;27;20029;-73
2021/12/24 05:59:08;;;;;;;8.98;4.70;;;0.40;92.70;;;;;;5125125;27;20035;-72
2021/12/24 06:01:33;;;;;;;8.50;5.03;;;0.40;92.90;;;;;;5120295;27;20026;-73
2021/12/24 06:03:59;;;;;;;16.55;6.32;;;0.40;92.90;;;;;;5124910;27;20028;-73
2021/12/24 06:06:25;;;;;;;8.80;4.90;;;0.20;93.20;;;;;;5123140;27;20466;-73
2021/12/24 06:08:51;;;;;;;7.55;3.97;;;-0.10;93.40;;;;;;5124579;27;20681;-73
2021/12/24 06:11:17;;;;;;;8.18;4.50;;;0.10;93.30;;;;;;5125419;27;20039;-73
2021/12/24 06:13:43;;;;;;;10.20;4.88;;;0.30;93.10;;;;;;5124866;27;20020;-73
2021/12/24 06:16:09;;;;;;;6.55;4.25;;;0.30;93.20;;;;;;5123384;27;20027;-73
2021/12/24 06:18:39;;;;;;;8.00;4.43;;;0.30;93.20;;;;;;5119689;27;20027;-73
2021/12/24 06:21:05;;;;;;;7.63;3.80;;;0.30;93.20;;;;;;5124263;27;20023;-73
2021/12/24 06:23:33;;;;;;;9.20;4.85;;;0.40;92.90;;;;;;5124784;27;20119;-73
2021/12/24 06:25:59;;;;;;;10.77;4.20;;;0.30;93.10;;;;;;5123578;27;20035;-73
2021/12/24 06:28:26;;;;;;;7.75;3.75;;;0.30;93.10;;;;;;5123830;27;20035;-73
2021/12/24 06:30:53;;;;;;;15.98;12.23;;;0.20;93.20;;;;;;5129972;27;20027;-74
2021/12/24 06:33:19;;;;;;;11.65;4.55;;;0.30;93.10;;;;;;5125277;27;20035;-73
2021/12/24 06:35:45;;;;;;;7.38;3.97;;;0.40;92.60;;;;;;5119433;27;20084;-74
2021/12/24 06:38:11;;;;;;;9.15;3.97;;;0.40;92.60;;;;;;5119316;27;20057;-74
2021/12/24 06:40:37;;;;;;;8.98;4.35;;;0.30;93.10;;;;;;5115265;27;20023;-74
2021/12/24 06:43:03;;;;;;;8.60;3.67;;;0.20;92.90;;;;;;5123339;27;20536;-74
2021/12/24 06:45:32;;;;;;;9.57;3.75;;;0.30;92.80;;;;;;5122641;27;20042;-74
2021/12/24 06:48:00;;;;;;;6.30;3.28;;;0.30;92.70;;;;;;5120956;27;20035;-74
2021/12/24 06:50:26;;;;;;;8.35;4.03;;;0.40;92.70;;;;;;5123095;27;20038;-74
2021/12/24 06:52:53;;;;;;;7.88;3.53;;;0.20;93.30;;;;;;5122687;27;20486;-74
2021/12/24 06:55:19;;;;;;;10.10;3.60;;;0.30;92.90;;;;;;5105175;27;20031;-74
2021/12/24 06:57:45;;;;;;;7.60;4.40;;;0.30;93.00;;;;;;5122954;27;20039;-74
2021/12/24 07:00:16;;;;;;;11.57;4.47;;;0.40;92.70;;;;;;5123205;27;20889;-74
2021/12/24 07:02:42;;;;;;;6.90;3.63;;;0.50;92.80;;;;;;5115038;27;20027;-74
2021/12/24 07:05:08;;;;;;;7.45;3.80;;;0.40;93.10;;;;;;5123808;27;20066;-74
2021/12/24 07:07:34;;;;;;;7.47;3.10;;;0.40;93.10;;;;;;5121354;27;20055;-74
2021/12/24 07:10:00;;;;;;;11.45;5.05;;;0.50;93.10;;;;;;5116095;27;20115;-74
2021/12/24 07:12:26;;;;;;;8.20;4.30;;;0.20;93.30;;;;;;5123532;27;20117;-74
2021/12/24 07:14:52;;;;;;;7.90;3.85;;;0.00;93.60;;;;;;5122682;27;20023;-74
2021/12/24 07:17:18;;;;;;;6.32;3.50;;;0.10;93.70;;;;;;5123703;27;20631;-74
2021/12/24 07:19:44;;;;;;;8.35;3.65;;;0.30;93.30;;;;;;5119674;27;20023;-74
2021/12/24 07:22:10;;;;;;;8.55;3.88;;;0.40;93.30;;;;;;5123220;27;20031;-74
2021/12/24 07:24:36;;;;;;;9.88;4.05;;;0.40;93.20;;;;;;5102623;28;20034;-74
2021/12/24 07:27:03;;;;;;;8.80;4.13;;;0.50;93.30;;;;;;5118760;27;20030;-74
2021/12/24 07:29:30;;;;;;;9.65;4.38;;;0.50;93.10;;;;;;5107367;28;20031;-74
2021/12/24 07:31:56;;;;;;;11.10;3.80;;;0.50;93.00;;;;;;5125284;28;20038;-72
2021/12/24 07:34:22;;;;;;;8.18;3.97;;;0.60;93.00;;;;;;5123498;28;20054;-72
2021/12/24 07:36:48;;;;;;;8.05;4.53;;;0.60;92.80;;;;;;5122385;28;20031;-72
2021/12/24 07:39:14;;;;;;;10.88;4.20;;;0.60;93.00;;;;;;5116036;28;20038;-72
2021/12/24 07:41:40;;;;;;;6.82;3.60;;;0.60;92.50;;;;;;5117364;28;20131;-73
2021/12/24 07:44:06;;;;;;;8.52;3.78;;;0.70;92.80;;;;;;5120075;28;20066;-72
2021/12/24 07:46:40;;;;;;;6.95;3.63;;;0.70;92.90;;;;;;5122490;28;20038;-73
2021/12/24 07:49:18;;;;;;;5.72;3.30;;;0.80;92.60;;;;;;5121417;28;20536;-72
2021/12/24 07:54:30;;;;;;;9.23;3.97;;;0.80;92.60;;;;;;5123091;28;20103;-73
2021/12/24 07:56:58;;;;;;;17.85;9.55;;;0.90;92.70;;;;;;5124058;27;20088;-72
2021/12/24 07:59:24;;;;;;;13.52;6.60;;;0.70;92.90;;;;;;5127918;27;20123;-72
2021/12/24 08:01:53;;;;;;;6.68;3.53;;;0.60;92.90;;;;;;5123254;27;20027;-72
2021/12/24 08:04:18;;;;;;;7.85;4.13;;;0.70;92.60;;;;;;5127503;27;20023;-72
2021/12/24 08:06:44;;;;;;;14.65;6.80;;;0.90;92.80;;;;;;5126705;27;20027;-73
2021/12/24 08:09:10;;;;;;;11.98;4.50;;;0.90;93.10;;;;;;5127480;27;20173;-72
2021/12/24 08:11:36;;;;;;;11.10;5.07;;;0.80;92.40;;;;;;5128130;27;20031;-72
2021/12/24 08:14:05;;;;;;;8.52;4.50;;;0.80;92.70;;;;;;5126848;27;20027;-72
2021/12/24 08:16:32;;;;;;;10.38;4.25;;;0.90;92.50;;;;;;5127410;27;20509;-72
2021/12/24 08:18:58;;;;;;;8.77;4.45;;;0.90;92.70;;;;;;5125280;27;20035;-72
2021/12/24 08:21:24;;;;;;;8.82;4.28;;;0.90;92.60;;;;;;5127332;27;20084;-73
2021/12/24 08:23:50;;;;;;;7.32;3.78;;;1.00;92.60;;;;;;5126567;27;20568;-73
2021/12/24 08:26:17;;;;;;;9.18;4.85;;;1.00;92.30;;;;;;5127287;27;20428;-73
2021/12/24 08:28:43;;;;;;;9.85;3.83;;;0.90;92.60;;;;;;5126483;27;21722;-73
2021/12/24 08:31:10;;;;;;;9.77;3.28;;;0.70;92.80;;;;;;5126746;27;20027;-73
2021/12/24 08:33:36;;;;;;;8.95;3.72;;;0.90;92.60;;;;;;5127630;27;20062;-72
2021/12/24 08:36:05;;;;;;;12.48;5.15;;;1.00;92.40;;;;;;5118288;27;20111;-73
2021/12/24 08:38:31;;;;;;;7.95;4.32;;;0.90;92.50;;;;;;5126393;27;20038;-74
2021/12/24 08:40:57;;;;;;;9.88;4.70;;;0.80;92.60;;;;;;5126206;27;20035;-72
2021/12/24 08:43:23;;;;;;;9.73;4.78;;;0.60;93.20;;;;;;5127377;27;20035;-72
2021/12/24 08:45:48;;;;;;;12.15;5.60;;;0.60;93.10;;;;;;5126392;27;20037;-74
2021/12/24 08:48:14;;;;;;;8.27;4.57;;;0.60;93.10;;;;;;5126087;27;20023;-73
2021/12/24 08:50:40;;;;;;;9.25;3.97;;;0.60;93.20;;;;;;5126409;27;20455;-76
2021/12/24 08:53:07;;;;;;;10.63;4.28;;;0.70;92.70;;;;;;5122513;27;20039;-77
2021/12/24 08:55:33;;;;;;;7.50;4.40;;;1.00;93.30;;;;;;5125524;27;20094;-78
2021/12/24 08:58:00;;;;;;;9.38;4.57;;;0.90;93.10;;;;;;5122991;27;20514;-72
2021/12/24 09:00:26;;;;;;;10.20;4.88;;;0.80;92.70;;;;;;5124938;27;20064;-77
2021/12/24 09:02:51;;;;;;;9.00;4.40;;;0.90;92.70;;;;;;5110278;27;20033;-75
2021/12/24 09:05:17;;;;;;;8.15;4.38;;;0.90;92.90;;;;;;5126694;27;20028;-72
2021/12/24 09:07:43;;;;;;;13.27;4.95;;;1.00;93.30;;;;;;5126898;27;20506;-71
2021/12/24 09:10:11;;;;;;;7.40;4.43;;;1.00;93.40;;;;;;5125907;27;20055;-74
2021/12/24 09:12:37;;;;;;;18.20;5.95;;;1.00;93.00;;;;;;5127304;27;20034;-74
2021/12/24 09:15:04;;;;;;;11.18;5.43;;;1.00;92.90;;;;;;5125482;27;20434;-71
2021/12/24 09:17:31;;;;;;;9.15;4.22;;;1.00;93.00;;;;;;5126711;27;20069;-76
2021/12/24 09:19:57;;;;;;;7.35;4.68;;;1.10;93.10;;;;;;5126167;27;20019;-75
2021/12/24 09:22:30;;;;;;;12.23;6.10;;;1.10;93.40;;;;;;5127159;27;20031;-75
2021/12/24 09:24:57;;;;;;;10.38;4.00;;;0.90;93.40;;;;;;5105875;27;20023;-75
2021/12/24 09:27:24;;;;;;;10.35;4.60;;;1.00;92.90;;;;;;5122790;27;20023;-75
2021/12/24 09:29:49;;;;;;;8.07;4.10;;;1.20;93.00;;;;;;5126945;27;20027;-74
2021/12/24 09:32:16;;;;;;;11.27;3.80;;;1.30;92.30;;;;;;5126850;27;20027;-77
2021/12/24 09:34:42;;;;;;;13.18;4.90;;;1.50;92.30;;;;;;5127743;27;21015;-77
2021/12/24 09:37:08;;;;;;;7.93;3.50;;;1.60;92.40;;;;;;5123733;27;20049;-79
2021/12/24 09:39:34;;;;;;;7.03;3.30;;;1.70;91.50;;;;;;5120445;27;20434;-73
2021/12/24 09:42:01;;;;;;;5.95;3.78;;;1.90;91.80;;;;;;5127309;27;20039;-74
2021/12/24 09:44:27;;;;;;;7.72;3.35;;;1.90;91.70;;;;;;5126554;27;20019;-75
2021/12/24 09:46:53;;;;;;;8.32;3.50;;;1.80;91.30;;;;;;5127887;27;20106;-74
2021/12/24 09:49:20;;;;;;;7.95;3.75;;;2.00;92.20;;;;;;5124760;27;20489;-73
2021/12/24 09:51:49;;;;;;;11.60;4.65;;;2.00;92.30;;;;;;5125683;27;20076;-73
2021/12/24 09:54:19;;;;;;;8.82;5.05;;;1.80;91.20;;;;;;5125337;27;20031;-74
2021/12/24 09:56:45;;;;;;;8.20;3.90;;;1.70;91.80;;;;;;5125323;27;20019;-74
2021/12/24 09:59:11;;;;;;;7.25;3.70;;;1.70;92.20;;;;;;5122927;27;20050;-73
2021/12/24 10:01:43;;;;;;;9.30;4.50;;;1.50;92.10;;;;;;5119655;27;20031;-75
2021/12/24 10:04:17;;;;;;;8.45;4.82;;;1.70;92.70;;;;;;5124685;27;20070;-73
2021/12/24 10:06:53;;;;;;;9.93;4.80;;;1.60;92.40;;;;;;5124068;27;20456;-74
2021/12/24 10:09:20;;;;;;;13.20;5.82;;;1.60;92.30;;;;;;5125199;27;20050;-76
2021/12/24 10:11:55;;;;;;;11.35;6.10;;;1.50;92.50;;;;;;5124011;27;20034;-76
2021/12/24 10:14:28;;;;;;;10.85;5.63;;;1.60;92.30;;;;;;5124887;27;20035;-76
2021/12/24 10:16:54;;;;;;;8.80;5.10;;;1.50;92.50;;;;;;5119854;27;20110;-75
2021/12/24 10:19:20;;;;;;;11.10;5.47;;;1.70;92.80;;;;;;5124864;27;20483;-76
2021/12/24 10:21:48;;;;;;;8.70;4.07;;;1.60;92.50;;;;;;5123680;27;20106;-75
2021/12/24 10:24:17;;;;;;;7.72;4.18;;;1.90;92.50;;;;;;5127318;27;20032;-75
2021/12/24 10:26:42;;;;;;;6.80;3.90;;;2.00;92.30;;;;;;5134105;27;20026;-75
2021/12/24 10:29:26;;;;;;;8.73;3.33;;;2.00;92.00;;;;;;5133362;27;20035;-76
2021/12/24 10:31:55;;;;;;;7.32;4.18;;;2.10;91.60;;;;;;5129778;27;20042;-75
2021/12/24 10:34:31;;;;;;;9.65;6.25;;;2.20;91.50;;;;;;5111901;27;20115;-73
2021/12/24 10:37:01;;;;;;;8.15;5.35;;;2.10;92.00;;;;;;5093689;27;20031;-73
2021/12/24 10:39:33;;;;;;;8.75;3.88;;;2.30;91.60;;;;;;5123148;27;20035;-74
2021/12/24 10:42:02;;;;;;;10.65;4.97;;;2.40;90.90;;;;;;5130064;27;20038;-72
2021/12/24 10:44:30;;;;;;;6.70;4.03;;;2.40;90.70;;;;;;5131849;27;20036;-75
2021/12/24 10:47:09;;;;;;;11.70;4.53;;;2.30;91.10;;;;;;5130194;27;20031;-74
2021/12/24 10:54:59;;;;;;;11.18;6.15;;;1.90;92.50;;;;;;5123452;27;20058;-74
2021/12/24 10:57:28;;;;;;;14.40;6.47;;;1.90;92.80;;;;;;5123761;27;20038;-72
2021/12/24 10:59:56;;;;;;;15.32;6.40;;;1.80;92.80;;;;;;5123366;27;20106;-72
2021/12/24 11:02:31;;;;;;;11.55;5.63;;;2.00;92.80;;;;;;5127079;27;20020;-72
2021/12/24 11:04:57;;;;;;;12.65;6.65;;;2.10;92.70;;;;;;5128685;27;20098;-74
2021/12/24 11:07:39;;;;;;;19.17;8.35;;;2.00;92.70;;;;;;5127235;27;20047;-77
2021/12/24 11:10:19;;;;;;;116.78;61.75;;;2.20;92.90;;;;;;5125360;27;20142;-75
2021/12/24 11:12:56;;;;;;;18.55;9.98;;;2.30;93.10;;;;;;5124584;27;20027;-76
2021/12/24 11:15:25;;;;;;;12.15;7.47;;;2.20;92.60;;;;;;5122134;27;20064;-76
2021/12/24 11:17:53;;;;;;;13.95;7.38;;;2.10;93.40;;;;;;5112742;27;20070;-76
2021/12/24 11:20:19;;;;;;;16.88;8.75;;;2.00;93.10;;;;;;5131561;27;20118;-77
2021/12/24 11:23:12;;;;;;;10.80;7.72;;;2.10;92.90;;;;;;5124993;27;20665;-74
2021/12/24 11:25:39;;;;;;;14.48;7.15;;;2.30;92.90;;;;;;5116891;27;20024;-74
2021/12/24 11:28:07;;;;;;;12.82;6.97;;;2.30;92.70;;;;;;5123833;27;20059;-75
2021/12/24 11:30:35;;;;;;;12.00;6.32;;;2.30;93.00;;;;;;5123354;27;20031;-75
2021/12/24 11:33:01;;;;;;;17.77;8.23;;;2.30;92.50;;;;;;5123793;28;20087;-74
2021/12/24 11:35:28;;;;;;;13.60;6.22;;;2.50;92.70;;;;;;5122425;28;20106;-76
2021/12/24 11:37:55;;;;;;;9.68;5.55;;;2.40;93.10;;;;;;5114483;27;20067;-80
2021/12/24 11:40:24;;;;;;;8.93;5.53;;;2.20;92.70;;;;;;5124659;27;20062;-78
2021/12/24 11:42:55;;;;;;;11.57;5.80;;;2.30;92.30;;;;;;5120285;27;20031;-77
2021/12/24 11:45:23;;;;;;;10.60;5.43;;;2.40;92.30;;;;;;5123947;28;20015;-79
2021/12/24 11:47:51;;;;;;;11.30;6.15;;;2.30;92.70;;;;;;5133098;28;20366;-76
2021/12/24 11:50:17;;;;;;;32.15;19.55;;;2.30;91.80;;;;;;5115568;28;20039;-75
2021/12/24 11:52:47;;;;;;;12.40;6.75;;;2.20;91.90;;;;;;5130541;28;20461;-76
2021/12/24 11:55:13;;;;;;;11.00;5.57;;;2.40;92.40;;;;;;5129673;28;20084;-74
2021/12/24 11:58:03;;;;;;;9.55;4.55;;;2.50;91.70;;;;;;5124624;28;20080;-75
2021/12/24 12:00:39;;;;;;;11.52;4.55;;;2.60;91.60;;;;;;5122414;28;20023;-78
2021/12/24 12:03:06;;;;;;;12.93;5.88;;;2.60;92.30;;;;;;5122043;28;20030;-74
2021/12/24 12:05:35;;;;;;;9.43;5.03;;;2.50;92.10;;;;;;5124157;28;20385;-76
2021/12/24 12:08:25;;;;;;;10.77;5.03;;;2.70;92.30;;;;;;5118528;28;20066;-76
2021/12/24 12:11:20;;;;;;;10.70;5.07;;;2.60;91.90;;;;;;5105928;28;20024;-73
2021/12/24 12:13:54;;;;;;;12.95;5.03;;;2.60;91.60;;;;;;5117217;28;20483;-74
2021/12/24 12:16:43;;;;;;;10.25;5.82;;;2.70;91.80;;;;;;5115910;28;20019;-75
2021/12/24 12:19:21;;;;;;;9.20;5.05;;;2.70;92.10;;;;;;5122054;28;20039;-73
2021/12/24 12:22:31;;;;;;;12.98;5.80;;;2.70;91.80;;;;;;5119617;28;20115;-74
2021/12/24 12:25:04;;;;;;;9.18;5.38;;;2.70;91.80;;;;;;5116486;28;20026;-75
2021/12/24 12:27:57;;;;;;;8.82;4.93;;;2.70;91.60;;;;;;5122335;27;20027;-75
2021/12/24 12:30:36;;;;;;;9.60;5.43;;;2.70;91.70;;;;;;5121579;28;20029;-75
2021/12/24 12:33:23;;;;;;;10.77;4.80;;;2.70;92.00;;;;;;5117634;28;20042;-75
2021/12/24 12:35:50;;;;;;;8.40;5.25;;;2.70;91.30;;;;;;5119689;28;20028;-76
2021/12/24 12:38:35;;;;;;;8.68;4.78;;;2.80;91.50;;;;;;5118444;27;20039;-75
2021/12/24 12:41:19;;;;;;;;;;;2.80;91.50;;;;;;5122650;28;20031;-76
2021/12/24 12:43:47;;;;;;;8.75;4.80;;;2.90;91.50;;;;;;5123203;27;19907;-76
2021/12/24 12:46:33;;;;;;;6.70;4.35;;;2.90;91.60;;;;;;5126710;27;20027;-78
2021/12/24 12:49:06;;;;;;;10.52;5.07;;;2.90;91.30;;;;;;5125979;27;20062;-77
2021/12/24 12:51:57;;;;;;;10.55;5.22;;;3.10;92.30;;;;;;5118667;27;20038;-75
2021/12/24 12:54:48;;;;;;;10.27;5.43;;;2.80;92.20;;;;;;5123813;27;20082;-76
2021/12/24 12:57:23;;;;;;;12.23;5.13;;;3.20;92.10;;;;;;5126233;27;20031;-75
2021/12/24 13:00:07;;;;;;;10.48;5.22;;;3.10;91.70;;;;;;5125805;27;20038;-74
2021/12/24 13:03:06;;;;;;;10.37;4.90;;;3.10;91.60;;;;;;5124534;27;20031;-75
2021/12/24 13:05:38;;;;;;;13.65;5.60;;;3.10;91.30;;;;;;5125536;27;20768;-74
2021/12/24 13:08:32;;;;;;;13.23;5.43;;;3.20;91.30;;;;;;5120537;27;20053;-76
2021/12/24 13:11:01;;;;;;;9.23;4.78;;;3.20;91.30;;;;;;5120825;27;20045;-76
2021/12/24 13:13:27;;;;;;;10.40;5.60;;;3.30;91.30;;;;;;5124995;27;20023;-76
2021/12/24 13:15:54;;;;;;;10.38;5.70;;;3.30;91.10;;;;;;5126213;27;21726;-75
2021/12/24 13:18:34;;;;;;;9.77;4.97;;;3.40;91.50;;;;;;5125270;27;20026;-77
2021/12/24 13:23:30;;;;;;;11.70;5.07;;;3.50;90.40;;;;;;5123212;27;20034;-77
2021/12/24 13:25:56;;;;;;;7.18;4.50;;;3.50;90.40;;;;;;5115155;27;20027;-76
2021/12/24 13:28:22;;;;;;;8.45;4.97;;;3.50;90.50;;;;;;5123965;27;20088;-76
2021/12/24 13:30:47;;;;;;;9.70;5.03;;;3.50;90.60;;;;;;5121830;27;20456;-76
2021/12/24 13:33:18;;;;;;;9.52;4.25;;;3.50;90.40;;;;;;5125610;27;20059;-76
2021/12/24 13:35:49;;;;;;;7.35;4.57;;;3.60;90.50;;;;;;5120857;27;20054;-77
2021/12/24 13:38:27;;;;;;;9.88;4.68;;;3.60;90.30;;;;;;5121917;27;20106;-79
2021/12/24 13:40:55;;;;;;;8.82;4.63;;;3.60;91.00;;;;;;5121843;27;20612;-78
2021/12/24 13:43:21;;;;;;;11.30;5.40;;;3.50;91.30;;;;;;5127231;27;20102;-79
2021/12/24 13:45:51;;;;;;;15.93;7.53;;;3.40;91.60;;;;;;5127031;27;20475;-80
2021/12/24 13:48:44;;;;;;;12.27;6.53;;;3.30;91.70;;;;;;5127102;27;20023;-80
2021/12/24 13:56:49;;;;;;;11.30;5.50;;;3.00;91.90;;;;;;5125965;27;20047;-78
2021/12/24 13:59:20;;;;;;;10.82;6.00;;;3.00;92.10;;;;;;5122632;27;20039;-77
2021/12/24 14:01:46;;;;;;;11.15;6.15;;;3.00;92.30;;;;;;5126626;27;20027;-76
2021/12/24 14:04:16;;;;;;;13.73;6.38;;;3.10;92.10;;;;;;5121136;27;20023;-78
2021/12/24 14:06:48;;;;;;;12.20;6.95;;;3.00;91.80;;;;;;5120564;27;20027;-77
2021/12/24 14:09:21;;;;;;;10.75;6.80;;;2.90;92.00;;;;;;5125576;27;20568;-78
2021/12/24 14:11:49;;;;;;;19.52;6.82;;;3.00;91.90;;;;;;5125597;27;20039;-80
2021/12/24 14:14:26;;;;;;;12.70;6.38;;;3.00;91.60;;;;;;5123825;27;20027;-82
2021/12/24 14:19:43;;;;;;;11.80;6.45;;;3.00;92.00;;;;;;5125443;27;20092;-81
2021/12/24 14:22:14;;;;;;;10.45;5.90;;;3.00;91.90;;;;;;5125988;27;20023;-78
2021/12/24 14:24:52;;;;;;;13.70;6.20;;;3.00;91.50;;;;;;5117615;27;20552;-78
2021/12/24 14:27:21;;;;;;;12.25;6.07;;;3.00;91.80;;;;;;5125457;27;20039;-78
2021/12/24 14:29:54;;;;;;;12.13;6.13;;;3.00;92.00;;;;;;5105027;27;20964;-79
2021/12/24 14:32:36;;;;;;;11.43;5.45;;;3.00;91.70;;;;;;5119523;27;20496;-76
2021/12/24 14:35:21;;;;;;;9.40;5.97;;;3.00;91.20;;;;;;5120509;27;20609;-76
2021/12/24 14:38:17;;;;;;;9.50;5.40;;;3.00;91.40;;;;;;5119766;27;20035;-76
2021/12/24 14:40:43;;;;;;;13.70;5.72;;;3.10;91.90;;;;;;5121985;27;20062;-78
2021/12/24 14:43:10;;;;;;;12.77;5.65;;;2.90;91.80;;;;;;5125271;27;20058;-80
2021/12/24 14:45:39;;;;;;;12.90;6.07;;;2.90;92.00;;;;;;5123463;27;20038;-77
2021/12/24 14:48:24;;;;;;;13.70;6.53;;;2.80;92.10;;;;;;5123659;27;20063;-76
2021/12/24 14:51:00;;;;;;;12.18;6.55;;;2.80;92.20;;;;;;5124908;27;20534;-78
2021/12/24 14:53:43;;;;;;;12.52;6.18;;;2.80;92.30;;;;;;5119309;27;20024;-77
2021/12/24 14:56:10;;;;;;;12.85;6.05;;;2.70;92.40;;;;;;5119419;27;20019;-78
2021/12/24 14:58:39;;;;;;;12.68;7.15;;;2.60;92.20;;;;;;5124596;27;20027;-81
2021/12/24 15:01:16;;;;;;;10.73;6.22;;;2.90;92.60;;;;;;5125510;27;20031;-79
2021/12/24 15:03:45;;;;;;;15.13;7.18;;;2.80;92.50;;;;;;5124783;27;20079;-79
2021/12/24 15:06:20;;;;;;;12.40;7.38;;;2.70;92.40;;;;;;5122974;27;20031;-79
2021/12/24 15:08:46;;;;;;;14.38;6.82;;;2.70;92.30;;;;;;5123681;27;20120;-79